sensor_id;sensor_type;location;lat;lon;timestamp;temperature;humidity
36002;DHT22;22070;50.922;5.430;2022-09-01T00:02:06;19.10;99.90
36002;DHT22;22070;50.922;5.430;2022-09-01T00:04:37;19.00;99.90
36002;DHT22;22070;50.922;5.430;2022-09-01T00:07:06;19.10;99.90
36002;DHT22;22070;50.922;5.430;2022-09-01T00:09:32;19.00;99.90
36002;DHT22;22070;50.922;5.430;2022-09-01T00:11:59;19.10;99.90
36002;DHT22;22070;50.922;5.430;2022-09-01T00:14:28;19.10;99.90
36002;DHT22;22070;50.922;5.430;2022-09-01T00:16:54;19.00;99.90
36002;DHT22;22070;50.922;5.430;2022-09-01T00:19:21;18.90;99.90
36002;DHT22;22070;50.922;5.430;2022-09-01T00:21:47;18.80;99.90
36002;DHT22;22070;50.922;5.430;2022-09-01T00:24:15;18.70;99.90
36002;DHT22;22070;50.922;5.430;2022-09-01T00:26:41;18.80;99.90
36002;DHT22;22070;50.922;5.430;2022-09-01T00:29:07;18.80;99.90
36002;DHT22;22070;50.922;5.430;2022-09-01T00:31:33;18.80;99.90
36002;DHT22;22070;50.922;5.430;2022-09-01T00:33:59;18.80;99.90
36002;DHT22;22070;50.922;5.430;2022-09-01T00:36:25;18.60;99.90
36002;DHT22;22070;50.922;5.430;2022-09-01T00:38:52;18.70;99.90
36002;DHT22;22070;50.922;5.430;2022-09-01T00:41:20;18.40;99.90
36002;DHT22;22070;50.922;5.430;2022-09-01T00:43:58;18.30;99.90
36002;DHT22;22070;50.922;5.430;2022-09-01T00:46:30;18.40;99.90
36002;DHT22;22070;50.922;5.430;2022-09-01T00:49:16;18.40;99.90
36002;DHT22;22070;50.922;5.430;2022-09-01T00:51:48;18.40;99.90
36002;DHT22;22070;50.922;5.430;2022-09-01T00:54:21;18.40;99.90
36002;DHT22;22070;50.922;5.430;2022-09-01T00:56:48;18.30;99.90
36002;DHT22;22070;50.922;5.430;2022-09-01T00:59:16;18.30;99.90
36002;DHT22;22070;50.922;5.430;2022-09-01T01:01:43;18.20;99.90
36002;DHT22;22070;50.922;5.430;2022-09-01T01:04:09;18.20;99.90
36002;DHT22;22070;50.922;5.430;2022-09-01T01:06:43;18.00;99.90
36002;DHT22;22070;50.922;5.430;2022-09-01T01:09:10;18.00;99.90
36002;DHT22;22070;50.922;5.430;2022-09-01T01:11:36;18.10;99.90
36002;DHT22;22070;50.922;5.430;2022-09-01T01:14:05;18.00;99.90
36002;DHT22;22070;50.922;5.430;2022-09-01T01:16:38;17.90;99.90
36002;DHT22;22070;50.922;5.430;2022-09-01T01:19:26;17.80;99.90
36002;DHT22;22070;50.922;5.430;2022-09-01T01:22:21;17.80;99.90
36002;DHT22;22070;50.922;5.430;2022-09-01T01:25:09;17.80;99.90
36002;DHT22;22070;50.922;5.430;2022-09-01T01:27:37;17.80;99.90
36002;DHT22;22070;50.922;5.430;2022-09-01T01:30:07;17.70;99.90
36002;DHT22;22070;50.922;5.430;2022-09-01T01:32:38;17.60;99.90
36002;DHT22;22070;50.922;5.430;2022-09-01T01:35:11;17.50;99.90
36002;DHT22;22070;50.922;5.430;2022-09-01T01:37:44;17.50;99.90
36002;DHT22;22070;50.922;5.430;2022-09-01T01:40:12;17.40;99.90
36002;DHT22;22070;50.922;5.430;2022-09-01T01:42:44;17.40;99.90
36002;DHT22;22070;50.922;5.430;2022-09-01T01:45:12;17.50;99.90
36002;DHT22;22070;50.922;5.430;2022-09-01T01:47:42;17.50;99.90
36002;DHT22;22070;50.922;5.430;2022-09-01T01:50:10;17.40;99.90
36002;DHT22;22070;50.922;5.430;2022-09-01T01:52:36;17.30;99.90
36002;DHT22;22070;50.922;5.430;2022-09-01T01:55:02;17.30;99.90
36002;DHT22;22070;50.922;5.430;2022-09-01T01:57:34;17.30;99.90
36002;DHT22;22070;50.922;5.430;2022-09-01T01:59:59;17.30;99.90
36002;DHT22;22070;50.922;5.430;2022-09-01T02:02:26;17.30;99.90
36002;DHT22;22070;50.922;5.430;2022-09-01T02:04:51;17.10;99.90
36002;DHT22;22070;50.922;5.430;2022-09-01T02:07:19;16.80;99.90
36002;DHT22;22070;50.922;5.430;2022-09-01T02:09:45;16.60;99.90
36002;DHT22;22070;50.922;5.430;2022-09-01T02:12:12;16.50;99.90
36002;DHT22;22070;50.922;5.430;2022-09-01T02:14:38;16.40;99.90
36002;DHT22;22070;50.922;5.430;2022-09-01T02:17:04;16.50;99.90
36002;DHT22;22070;50.922;5.430;2022-09-01T02:19:32;16.50;99.90
36002;DHT22;22070;50.922;5.430;2022-09-01T02:22:01;16.60;99.90
36002;DHT22;22070;50.922;5.430;2022-09-01T02:24:26;16.60;99.90
36002;DHT22;22070;50.922;5.430;2022-09-01T02:26:56;16.70;99.90
36002;DHT22;22070;50.922;5.430;2022-09-01T02:29:23;16.70;99.90
36002;DHT22;22070;50.922;5.430;2022-09-01T02:31:53;16.40;99.90
36002;DHT22;22070;50.922;5.430;2022-09-01T02:34:21;16.40;99.90
36002;DHT22;22070;50.922;5.430;2022-09-01T02:36:50;16.50;99.90
36002;DHT22;22070;50.922;5.430;2022-09-01T02:39:36;16.50;99.90
36002;DHT22;22070;50.922;5.430;2022-09-01T02:42:02;16.50;99.90
36002;DHT22;22070;50.922;5.430;2022-09-01T02:44:28;16.50;99.90
36002;DHT22;22070;50.922;5.430;2022-09-01T02:46:55;16.60;99.90
36002;DHT22;22070;50.922;5.430;2022-09-01T02:49:22;16.50;99.90
36002;DHT22;22070;50.922;5.430;2022-09-01T02:51:54;16.40;99.90
36002;DHT22;22070;50.922;5.430;2022-09-01T02:54:26;16.30;99.90
36002;DHT22;22070;50.922;5.430;2022-09-01T02:56:53;16.40;99.90
36002;DHT22;22070;50.922;5.430;2022-09-01T02:59:20;16.40;99.90
36002;DHT22;22070;50.922;5.430;2022-09-01T03:01:48;16.30;99.90
36002;DHT22;22070;50.922;5.430;2022-09-01T03:04:14;16.20;99.90
36002;DHT22;22070;50.922;5.430;2022-09-01T03:06:40;16.20;99.90
36002;DHT22;22070;50.922;5.430;2022-09-01T03:09:09;16.10;99.90
36002;DHT22;22070;50.922;5.430;2022-09-01T03:11:38;16.00;99.90
36002;DHT22;22070;50.922;5.430;2022-09-01T03:14:05;16.10;99.90
36002;DHT22;22070;50.922;5.430;2022-09-01T03:16:32;16.00;99.90
36002;DHT22;22070;50.922;5.430;2022-09-01T03:18:58;16.00;99.90
36002;DHT22;22070;50.922;5.430;2022-09-01T03:21:24;15.90;99.90
36002;DHT22;22070;50.922;5.430;2022-09-01T03:23:51;16.00;99.90
36002;DHT22;22070;50.922;5.430;2022-09-01T03:26:19;16.10;99.90
36002;DHT22;22070;50.922;5.430;2022-09-01T03:28:47;16.10;99.90
36002;DHT22;22070;50.922;5.430;2022-09-01T03:31:13;16.10;99.90
36002;DHT22;22070;50.922;5.430;2022-09-01T03:33:39;16.10;99.90
36002;DHT22;22070;50.922;5.430;2022-09-01T03:36:06;16.20;99.90
36002;DHT22;22070;50.922;5.430;2022-09-01T03:38:32;16.10;99.90
36002;DHT22;22070;50.922;5.430;2022-09-01T03:41:01;16.10;99.90
36002;DHT22;22070;50.922;5.430;2022-09-01T03:43:32;16.10;99.90
36002;DHT22;22070;50.922;5.430;2022-09-01T03:45:58;16.10;99.90
36002;DHT22;22070;50.922;5.430;2022-09-01T03:48:29;16.10;99.90
36002;DHT22;22070;50.922;5.430;2022-09-01T03:50:57;16.00;99.90
36002;DHT22;22070;50.922;5.430;2022-09-01T03:53:29;15.90;99.90
36002;DHT22;22070;50.922;5.430;2022-09-01T03:55:55;15.80;99.90
36002;DHT22;22070;50.922;5.430;2022-09-01T03:58:23;15.70;99.90
36002;DHT22;22070;50.922;5.430;2022-09-01T04:00:53;15.50;99.90
36002;DHT22;22070;50.922;5.430;2022-09-01T04:03:24;15.50;99.90
36002;DHT22;22070;50.922;5.430;2022-09-01T04:05:52;15.60;99.90
36002;DHT22;22070;50.922;5.430;2022-09-01T04:08:19;15.60;99.90
36002;DHT22;22070;50.922;5.430;2022-09-01T04:10:51;15.60;99.90
36002;DHT22;22070;50.922;5.430;2022-09-01T04:13:27;15.70;99.90
36002;DHT22;22070;50.922;5.430;2022-09-01T04:15:55;15.50;99.90
36002;DHT22;22070;50.922;5.430;2022-09-01T04:18:21;15.50;99.90
36002;DHT22;22070;50.922;5.430;2022-09-01T04:20:52;15.40;99.90
36002;DHT22;22070;50.922;5.430;2022-09-01T04:23:22;15.20;99.90
36002;DHT22;22070;50.922;5.430;2022-09-01T04:26:05;15.30;99.90
36002;DHT22;22070;50.922;5.430;2022-09-01T04:28:44;15.30;99.90
36002;DHT22;22070;50.922;5.430;2022-09-01T04:31:13;15.30;99.90
36002;DHT22;22070;50.922;5.430;2022-09-01T04:33:43;15.30;99.90
36002;DHT22;22070;50.922;5.430;2022-09-01T04:36:19;15.20;99.90
36002;DHT22;22070;50.922;5.430;2022-09-01T04:38:51;15.00;99.90
36002;DHT22;22070;50.922;5.430;2022-09-01T04:41:29;14.90;99.90
36002;DHT22;22070;50.922;5.430;2022-09-01T04:43:57;14.90;99.90
36002;DHT22;22070;50.922;5.430;2022-09-01T04:46:23;15.00;99.90
36002;DHT22;22070;50.922;5.430;2022-09-01T04:48:54;14.90;99.90
36002;DHT22;22070;50.922;5.430;2022-09-01T04:51:21;14.60;99.90
36002;DHT22;22070;50.922;5.430;2022-09-01T04:53:48;14.50;99.90
36002;DHT22;22070;50.922;5.430;2022-09-01T04:56:19;14.60;99.90
36002;DHT22;22070;50.922;5.430;2022-09-01T04:58:50;14.60;99.90
36002;DHT22;22070;50.922;5.430;2022-09-01T05:01:19;14.50;99.90
36002;DHT22;22070;50.922;5.430;2022-09-01T05:03:46;14.60;99.90
36002;DHT22;22070;50.922;5.430;2022-09-01T05:06:22;14.80;99.90
36002;DHT22;22070;50.922;5.430;2022-09-01T05:08:48;14.80;99.90
36002;DHT22;22070;50.922;5.430;2022-09-01T05:11:15;14.90;99.90
36002;DHT22;22070;50.922;5.430;2022-09-01T05:13:46;14.90;99.90
36002;DHT22;22070;50.922;5.430;2022-09-01T05:16:14;14.80;99.90
36002;DHT22;22070;50.922;5.430;2022-09-01T05:18:45;14.80;99.90
36002;DHT22;22070;50.922;5.430;2022-09-01T05:21:13;14.90;99.90
36002;DHT22;22070;50.922;5.430;2022-09-01T05:23:41;14.90;99.90
36002;DHT22;22070;50.922;5.430;2022-09-01T05:26:11;14.80;99.90
36002;DHT22;22070;50.922;5.430;2022-09-01T05:28:43;14.80;99.90
36002;DHT22;22070;50.922;5.430;2022-09-01T05:31:10;14.90;99.90
36002;DHT22;22070;50.922;5.430;2022-09-01T05:33:37;14.90;99.90
36002;DHT22;22070;50.922;5.430;2022-09-01T05:36:10;15.10;99.90
36002;DHT22;22070;50.922;5.430;2022-09-01T05:38:36;15.20;99.90
36002;DHT22;22070;50.922;5.430;2022-09-01T05:41:04;15.30;99.90
36002;DHT22;22070;50.922;5.430;2022-09-01T05:43:33;15.30;99.90
36002;DHT22;22070;50.922;5.430;2022-09-01T05:45:59;15.50;99.90
36002;DHT22;22070;50.922;5.430;2022-09-01T05:48:29;15.60;99.90
36002;DHT22;22070;50.922;5.430;2022-09-01T05:50:56;15.80;99.90
36002;DHT22;22070;50.922;5.430;2022-09-01T05:53:23;15.90;99.90
36002;DHT22;22070;50.922;5.430;2022-09-01T05:55:51;16.00;99.90
36002;DHT22;22070;50.922;5.430;2022-09-01T05:58:23;16.10;99.90
36002;DHT22;22070;50.922;5.430;2022-09-01T06:00:51;16.20;99.90
36002;DHT22;22070;50.922;5.430;2022-09-01T06:03:19;16.20;99.90
36002;DHT22;22070;50.922;5.430;2022-09-01T06:05:44;16.30;99.90
36002;DHT22;22070;50.922;5.430;2022-09-01T06:08:18;16.40;99.90
36002;DHT22;22070;50.922;5.430;2022-09-01T06:10:45;16.50;99.90
36002;DHT22;22070;50.922;5.430;2022-09-01T06:13:11;16.60;99.90
36002;DHT22;22070;50.922;5.430;2022-09-01T06:15:42;16.70;99.90
36002;DHT22;22070;50.922;5.430;2022-09-01T06:18:10;16.80;99.90
36002;DHT22;22070;50.922;5.430;2022-09-01T06:20:45;16.90;99.90
36002;DHT22;22070;50.922;5.430;2022-09-01T06:23:12;17.10;99.90
36002;DHT22;22070;50.922;5.430;2022-09-01T06:25:40;17.20;99.90
36002;DHT22;22070;50.922;5.430;2022-09-01T06:28:08;17.30;99.90
36002;DHT22;22070;50.922;5.430;2022-09-01T06:30:37;17.40;99.90
36002;DHT22;22070;50.922;5.430;2022-09-01T06:33:03;17.60;99.90
36002;DHT22;22070;50.922;5.430;2022-09-01T06:35:34;17.60;99.90
36002;DHT22;22070;50.922;5.430;2022-09-01T06:38:00;17.80;99.90
36002;DHT22;22070;50.922;5.430;2022-09-01T06:40:27;17.80;99.90
36002;DHT22;22070;50.922;5.430;2022-09-01T06:42:53;17.90;99.90
36002;DHT22;22070;50.922;5.430;2022-09-01T06:45:23;17.90;99.90
36002;DHT22;22070;50.922;5.430;2022-09-01T06:47:49;18.00;99.90
36002;DHT22;22070;50.922;5.430;2022-09-01T06:50:19;18.10;99.90
36002;DHT22;22070;50.922;5.430;2022-09-01T06:52:47;18.20;99.90
36002;DHT22;22070;50.922;5.430;2022-09-01T06:55:15;18.30;99.90
36002;DHT22;22070;50.922;5.430;2022-09-01T06:57:41;18.40;99.90
36002;DHT22;22070;50.922;5.430;2022-09-01T07:00:14;18.60;99.90
36002;DHT22;22070;50.922;5.430;2022-09-01T07:02:51;18.60;99.90
36002;DHT22;22070;50.922;5.430;2022-09-01T07:05:17;18.60;99.90
36002;DHT22;22070;50.922;5.430;2022-09-01T07:07:46;18.60;99.90
36002;DHT22;22070;50.922;5.430;2022-09-01T07:10:15;18.70;99.90
36002;DHT22;22070;50.922;5.430;2022-09-01T07:12:45;18.80;99.90
36002;DHT22;22070;50.922;5.430;2022-09-01T07:15:12;18.90;99.90
36002;DHT22;22070;50.922;5.430;2022-09-01T07:17:49;19.10;99.90
36002;DHT22;22070;50.922;5.430;2022-09-01T07:20:17;19.10;99.90
36002;DHT22;22070;50.922;5.430;2022-09-01T07:22:43;19.10;99.90
36002;DHT22;22070;50.922;5.430;2022-09-01T07:25:09;19.30;99.90
36002;DHT22;22070;50.922;5.430;2022-09-01T07:27:37;19.40;99.90
36002;DHT22;22070;50.922;5.430;2022-09-01T07:30:03;19.50;99.90
36002;DHT22;22070;50.922;5.430;2022-09-01T07:32:29;19.50;99.90
36002;DHT22;22070;50.922;5.430;2022-09-01T07:34:55;19.60;99.90
36002;DHT22;22070;50.922;5.430;2022-09-01T07:37:21;19.50;99.90
36002;DHT22;22070;50.922;5.430;2022-09-01T07:39:47;19.70;99.90
36002;DHT22;22070;50.922;5.430;2022-09-01T07:42:15;19.70;99.90
36002;DHT22;22070;50.922;5.430;2022-09-01T07:44:41;19.80;99.90
36002;DHT22;22070;50.922;5.430;2022-09-01T07:47:07;20.00;99.90
36002;DHT22;22070;50.922;5.430;2022-09-01T07:49:34;20.00;99.90
36002;DHT22;22070;50.922;5.430;2022-09-01T07:52:03;19.90;99.90
36002;DHT22;22070;50.922;5.430;2022-09-01T07:54:29;20.00;99.90
36002;DHT22;22070;50.922;5.430;2022-09-01T07:56:55;20.00;99.90
36002;DHT22;22070;50.922;5.430;2022-09-01T07:59:21;20.10;99.90
36002;DHT22;22070;50.922;5.430;2022-09-01T08:01:47;20.10;99.90
36002;DHT22;22070;50.922;5.430;2022-09-01T08:04:14;20.10;99.90
36002;DHT22;22070;50.922;5.430;2022-09-01T08:06:41;20.10;99.90
36002;DHT22;22070;50.922;5.430;2022-09-01T08:09:06;20.20;99.90
36002;DHT22;22070;50.922;5.430;2022-09-01T08:11:32;20.20;99.90
36002;DHT22;22070;50.922;5.430;2022-09-01T08:13:59;20.20;99.90
36002;DHT22;22070;50.922;5.430;2022-09-01T08:16:29;20.40;99.90
36002;DHT22;22070;50.922;5.430;2022-09-01T08:18:56;20.50;99.90
36002;DHT22;22070;50.922;5.430;2022-09-01T08:21:23;20.60;99.90
36002;DHT22;22070;50.922;5.430;2022-09-01T08:23:49;20.70;99.90
36002;DHT22;22070;50.922;5.430;2022-09-01T08:26:17;20.90;99.90
36002;DHT22;22070;50.922;5.430;2022-09-01T08:28:43;20.90;99.90
36002;DHT22;22070;50.922;5.430;2022-09-01T08:31:11;20.90;99.90
36002;DHT22;22070;50.922;5.430;2022-09-01T08:33:38;21.00;99.90
36002;DHT22;22070;50.922;5.430;2022-09-01T08:36:07;21.10;99.90
36002;DHT22;22070;50.922;5.430;2022-09-01T08:38:33;21.10;99.90
36002;DHT22;22070;50.922;5.430;2022-09-01T08:41:00;21.20;99.90
36002;DHT22;22070;50.922;5.430;2022-09-01T08:46:27;21.40;99.90
36002;DHT22;22070;50.922;5.430;2022-09-01T08:49:00;21.50;99.90
36002;DHT22;22070;50.922;5.430;2022-09-01T08:51:53;21.60;99.90
36002;DHT22;22070;50.922;5.430;2022-09-01T08:54:25;21.60;99.90
36002;DHT22;22070;50.922;5.430;2022-09-01T08:56:58;21.70;99.90
36002;DHT22;22070;50.922;5.430;2022-09-01T08:59:25;21.70;99.90
36002;DHT22;22070;50.922;5.430;2022-09-01T09:10:17;22.00;99.90
36002;DHT22;22070;50.922;5.430;2022-09-01T09:18:13;22.40;99.90
36002;DHT22;22070;50.922;5.430;2022-09-01T09:20:42;22.50;99.90
36002;DHT22;22070;50.922;5.430;2022-09-01T09:23:20;22.60;99.90
36002;DHT22;22070;50.922;5.430;2022-09-01T09:25:48;22.60;99.90
36002;DHT22;22070;50.922;5.430;2022-09-01T09:28:15;22.70;99.90
36002;DHT22;22070;50.922;5.430;2022-09-01T09:30:41;22.80;99.90
36002;DHT22;22070;50.922;5.430;2022-09-01T09:33:07;22.90;99.90
36002;DHT22;22070;50.922;5.430;2022-09-01T09:35:45;23.00;99.90
36002;DHT22;22070;50.922;5.430;2022-09-01T09:41:07;23.10;99.90
36002;DHT22;22070;50.922;5.430;2022-09-01T09:43:42;23.20;99.90
36002;DHT22;22070;50.922;5.430;2022-09-01T09:51:32;23.10;99.90
36002;DHT22;22070;50.922;5.430;2022-09-01T09:54:22;23.20;99.90
36002;DHT22;22070;50.922;5.430;2022-09-01T10:07:44;23.20;99.90
36002;DHT22;22070;50.922;5.430;2022-09-01T10:12:55;23.40;99.90
36002;DHT22;22070;50.922;5.430;2022-09-01T10:15:25;23.50;99.90
36002;DHT22;22070;50.922;5.430;2022-09-01T10:17:53;23.50;99.90
36002;DHT22;22070;50.922;5.430;2022-09-01T10:20:23;23.60;99.90
36002;DHT22;22070;50.922;5.430;2022-09-01T10:22:50;23.70;99.90
36002;DHT22;22070;50.922;5.430;2022-09-01T10:25:20;23.80;99.90
36002;DHT22;22070;50.922;5.430;2022-09-01T10:27:50;23.80;99.90
36002;DHT22;22070;50.922;5.430;2022-09-01T10:30:19;24.00;99.90
36002;DHT22;22070;50.922;5.430;2022-09-01T10:35:20;23.90;99.90
36002;DHT22;22070;50.922;5.430;2022-09-01T10:37:49;24.00;99.90
36002;DHT22;22070;50.922;5.430;2022-09-01T10:43:21;24.50;99.90
36002;DHT22;22070;50.922;5.430;2022-09-01T10:45:42;24.80;99.90
36002;DHT22;22070;50.922;5.430;2022-09-01T10:50:50;25.30;99.90
36002;DHT22;22070;50.922;5.430;2022-09-01T11:04:16;26.20;99.90
36002;DHT22;22070;50.922;5.430;2022-09-01T11:06:52;26.40;99.90
36002;DHT22;22070;50.922;5.430;2022-09-01T11:14:52;26.50;99.00
36002;DHT22;22070;50.922;5.430;2022-09-01T11:17:24;26.50;99.00
36002;DHT22;22070;50.922;5.430;2022-09-01T11:19:57;26.70;98.70
36002;DHT22;22070;50.922;5.430;2022-09-01T11:22:37;27.20;98.70
36002;DHT22;22070;50.922;5.430;2022-09-01T11:25:44;27.00;98.00
36002;DHT22;22070;50.922;5.430;2022-09-01T11:28:37;27.50;97.10
36002;DHT22;22070;50.922;5.430;2022-09-01T11:34:07;27.40;97.00
36002;DHT22;22070;50.922;5.430;2022-09-01T11:36:46;27.30;96.80
36002;DHT22;22070;50.922;5.430;2022-09-01T11:42:11;27.60;96.50
36002;DHT22;22070;50.922;5.430;2022-09-01T11:45:05;27.70;95.30
36002;DHT22;22070;50.922;5.430;2022-09-01T11:47:40;27.80;95.50
36002;DHT22;22070;50.922;5.430;2022-09-01T11:50:23;28.00;95.30
36002;DHT22;22070;50.922;5.430;2022-09-01T11:52:58;28.00;95.60
36002;DHT22;22070;50.922;5.430;2022-09-01T11:55:34;28.10;95.10
36002;DHT22;22070;50.922;5.430;2022-09-01T11:58:00;28.10;95.20
36002;DHT22;22070;50.922;5.430;2022-09-01T12:00:32;27.70;95.30
36002;DHT22;22070;50.922;5.430;2022-09-01T12:02:58;27.70;95.40
36002;DHT22;22070;50.922;5.430;2022-09-01T12:05:28;27.90;95.10
36002;DHT22;22070;50.922;5.430;2022-09-01T12:07:55;28.50;95.10
36002;DHT22;22070;50.922;5.430;2022-09-01T12:10:37;28.70;94.40
36002;DHT22;22070;50.922;5.430;2022-09-01T12:13:19;28.60;94.50
36002;DHT22;22070;50.922;5.430;2022-09-01T12:15:56;28.60;94.60
36002;DHT22;22070;50.922;5.430;2022-09-01T12:18:26;28.50;94.70
36002;DHT22;22070;50.922;5.430;2022-09-01T12:20:54;28.60;94.80
36002;DHT22;22070;50.922;5.430;2022-09-01T12:23:38;28.80;94.40
36002;DHT22;22070;50.922;5.430;2022-09-01T12:26:27;28.70;94.40
36002;DHT22;22070;50.922;5.430;2022-09-01T12:28:54;29.20;94.50
36002;DHT22;22070;50.922;5.430;2022-09-01T12:31:24;29.00;93.90
36002;DHT22;22070;50.922;5.430;2022-09-01T12:33:52;29.00;94.00
36002;DHT22;22070;50.922;5.430;2022-09-01T12:36:25;28.90;93.80
36002;DHT22;22070;50.922;5.430;2022-09-01T12:39:41;29.10;93.80
36002;DHT22;22070;50.922;5.430;2022-09-01T12:41:41;29.10;93.50
36002;DHT22;22070;50.922;5.430;2022-09-01T12:44:34;29.40;93.10
36002;DHT22;22070;50.922;5.430;2022-09-01T12:49:52;29.50;92.50
36002;DHT22;22070;50.922;5.430;2022-09-01T13:02:40;30.40;91.90
36002;DHT22;22070;50.922;5.430;2022-09-01T13:05:25;30.60;92.20
36002;DHT22;22070;50.922;5.430;2022-09-01T13:07:54;30.30;91.80
36002;DHT22;22070;50.922;5.430;2022-09-01T13:10:22;30.20;91.80
36002;DHT22;22070;50.922;5.430;2022-09-01T13:12:49;30.50;91.50
36002;DHT22;22070;50.922;5.430;2022-09-01T13:15:15;30.00;91.40
36002;DHT22;22070;50.922;5.430;2022-09-01T13:17:41;29.90;91.10
36002;DHT22;22070;50.922;5.430;2022-09-01T13:20:08;30.10;90.80
36002;DHT22;22070;50.922;5.430;2022-09-01T13:22:34;30.50;90.40
36002;DHT22;22070;50.922;5.430;2022-09-01T13:25:00;30.50;90.80
36002;DHT22;22070;50.922;5.430;2022-09-01T13:27:26;30.80;90.80
36002;DHT22;22070;50.922;5.430;2022-09-01T13:29:52;30.60;90.80
36002;DHT22;22070;50.922;5.430;2022-09-01T13:32:19;30.10;90.80
36002;DHT22;22070;50.922;5.430;2022-09-01T13:34:46;29.90;90.80
36002;DHT22;22070;50.922;5.430;2022-09-01T13:37:12;29.90;90.50
36002;DHT22;22070;50.922;5.430;2022-09-01T13:39:38;29.60;90.90
36002;DHT22;22070;50.922;5.430;2022-09-01T13:42:04;29.80;91.60
36002;DHT22;22070;50.922;5.430;2022-09-01T13:44:30;29.50;91.00
36002;DHT22;22070;50.922;5.430;2022-09-01T13:46:55;29.70;90.70
36002;DHT22;22070;50.922;5.430;2022-09-01T13:49:22;29.70;90.50
36002;DHT22;22070;50.922;5.430;2022-09-01T13:51:51;29.80;90.50
36002;DHT22;22070;50.922;5.430;2022-09-01T13:54:17;30.10;90.00
36002;DHT22;22070;50.922;5.430;2022-09-01T13:56:42;30.30;90.10
36002;DHT22;22070;50.922;5.430;2022-09-01T13:59:08;30.10;90.30
36002;DHT22;22070;50.922;5.430;2022-09-01T14:01:34;30.10;90.40
36002;DHT22;22070;50.922;5.430;2022-09-01T14:04:00;29.70;90.30
36002;DHT22;22070;50.922;5.430;2022-09-01T14:06:28;29.80;90.30
36002;DHT22;22070;50.922;5.430;2022-09-01T14:08:53;30.10;90.20
36002;DHT22;22070;50.922;5.430;2022-09-01T14:11:19;30.10;90.30
36002;DHT22;22070;50.922;5.430;2022-09-01T14:13:45;30.10;88.80
36002;DHT22;22070;50.922;5.430;2022-09-01T14:16:12;29.60;90.60
36002;DHT22;22070;50.922;5.430;2022-09-01T14:18:39;29.80;90.30
36002;DHT22;22070;50.922;5.430;2022-09-01T14:21:10;29.90;90.10
36002;DHT22;22070;50.922;5.430;2022-09-01T14:23:35;29.70;90.40
36002;DHT22;22070;50.922;5.430;2022-09-01T14:26:01;30.00;90.50
36002;DHT22;22070;50.922;5.430;2022-09-01T14:28:27;30.40;90.30
36002;DHT22;22070;50.922;5.430;2022-09-01T14:30:53;30.80;90.40
36002;DHT22;22070;50.922;5.430;2022-09-01T14:33:19;31.20;89.40
36002;DHT22;22070;50.922;5.430;2022-09-01T14:35:49;31.60;89.10
36002;DHT22;22070;50.922;5.430;2022-09-01T14:38:14;32.10;88.60
36002;DHT22;22070;50.922;5.430;2022-09-01T14:40:41;31.80;87.60
36002;DHT22;22070;50.922;5.430;2022-09-01T14:43:11;31.20;88.00
36002;DHT22;22070;50.922;5.430;2022-09-01T14:45:39;31.00;87.60
36002;DHT22;22070;50.922;5.430;2022-09-01T14:48:06;30.90;88.70
36002;DHT22;22070;50.922;5.430;2022-09-01T14:50:33;30.80;88.50
36002;DHT22;22070;50.922;5.430;2022-09-01T14:53:00;30.30;89.10
36002;DHT22;22070;50.922;5.430;2022-09-01T14:55:28;30.30;89.60
36002;DHT22;22070;50.922;5.430;2022-09-01T14:57:55;30.60;89.20
36002;DHT22;22070;50.922;5.430;2022-09-01T15:00:22;31.20;89.30
36002;DHT22;22070;50.922;5.430;2022-09-01T15:02:50;31.10;88.80
36002;DHT22;22070;50.922;5.430;2022-09-01T15:05:17;31.20;89.20
36002;DHT22;22070;50.922;5.430;2022-09-01T15:07:42;31.60;88.00
36002;DHT22;22070;50.922;5.430;2022-09-01T15:10:10;31.60;88.10
36002;DHT22;22070;50.922;5.430;2022-09-01T15:12:36;31.60;87.90
36002;DHT22;22070;50.922;5.430;2022-09-01T15:15:05;31.70;88.50
36002;DHT22;22070;50.922;5.430;2022-09-01T15:17:32;31.40;88.50
36002;DHT22;22070;50.922;5.430;2022-09-01T15:19:59;32.00;89.10
36002;DHT22;22070;50.922;5.430;2022-09-01T15:22:45;31.90;87.60
36002;DHT22;22070;50.922;5.430;2022-09-01T15:25:12;31.70;87.40
36002;DHT22;22070;50.922;5.430;2022-09-01T15:27:38;31.90;87.70
36002;DHT22;22070;50.922;5.430;2022-09-01T15:30:04;31.70;87.50
36002;DHT22;22070;50.922;5.430;2022-09-01T15:32:39;31.50;87.60
36002;DHT22;22070;50.922;5.430;2022-09-01T15:35:06;31.50;88.00
36002;DHT22;22070;50.922;5.430;2022-09-01T15:37:32;31.60;87.80
36002;DHT22;22070;50.922;5.430;2022-09-01T15:39:58;31.30;88.50
36002;DHT22;22070;50.922;5.430;2022-09-01T15:42:24;31.30;88.70
36002;DHT22;22070;50.922;5.430;2022-09-01T15:44:50;31.40;88.50
36002;DHT22;22070;50.922;5.430;2022-09-01T15:47:15;31.30;88.30
36002;DHT22;22070;50.922;5.430;2022-09-01T15:49:41;31.50;87.90
36002;DHT22;22070;50.922;5.430;2022-09-01T15:52:06;31.20;88.00
36002;DHT22;22070;50.922;5.430;2022-09-01T15:54:36;31.20;88.00
36002;DHT22;22070;50.922;5.430;2022-09-01T15:57:03;30.30;88.40
36002;DHT22;22070;50.922;5.430;2022-09-01T15:59:28;30.30;89.20
36002;DHT22;22070;50.922;5.430;2022-09-01T16:01:54;30.00;88.50
36002;DHT22;22070;50.922;5.430;2022-09-01T16:04:20;29.90;88.60
36002;DHT22;22070;50.922;5.430;2022-09-01T16:06:46;30.10;88.60
36002;DHT22;22070;50.922;5.430;2022-09-01T16:09:12;29.70;89.00
36002;DHT22;22070;50.922;5.430;2022-09-01T16:11:39;29.50;89.10
36002;DHT22;22070;50.922;5.430;2022-09-01T16:14:05;29.10;89.50
36002;DHT22;22070;50.922;5.430;2022-09-01T16:19:40;29.10;89.60
36002;DHT22;22070;50.922;5.430;2022-09-01T16:24:45;29.60;89.70
36002;DHT22;22070;50.922;5.430;2022-09-01T16:27:14;30.10;89.70
36002;DHT22;22070;50.922;5.430;2022-09-01T16:29:50;30.20;88.70
36002;DHT22;22070;50.922;5.430;2022-09-01T16:32:18;30.30;88.80
36002;DHT22;22070;50.922;5.430;2022-09-01T16:34:46;30.40;88.90
36002;DHT22;22070;50.922;5.430;2022-09-01T16:37:30;30.50;88.50
36002;DHT22;22070;50.922;5.430;2022-09-01T16:39:59;30.00;88.60
36002;DHT22;22070;50.922;5.430;2022-09-01T16:42:52;30.10;89.00
36002;DHT22;22070;50.922;5.430;2022-09-01T16:45:37;30.50;88.70
36002;DHT22;22070;50.922;5.430;2022-09-01T16:48:23;30.20;88.40
36002;DHT22;22070;50.922;5.430;2022-09-01T16:50:59;30.30;88.70
36002;DHT22;22070;50.922;5.430;2022-09-01T16:53:37;30.00;88.80
36002;DHT22;22070;50.922;5.430;2022-09-01T17:04:48;29.00;90.00
36002;DHT22;22070;50.922;5.430;2022-09-01T17:07:27;28.90;90.00
36002;DHT22;22070;50.922;5.430;2022-09-01T17:09:59;28.40;90.10
36002;DHT22;22070;50.922;5.430;2022-09-01T17:12:46;28.00;90.50
36002;DHT22;22070;50.922;5.430;2022-09-01T17:15:17;27.70;90.60
36002;DHT22;22070;50.922;5.430;2022-09-01T17:17:52;27.50;90.70
36002;DHT22;22070;50.922;5.430;2022-09-01T17:20:31;27.30;91.00
36002;DHT22;22070;50.922;5.430;2022-09-01T17:23:01;27.00;90.90